Time;durP1;ratioP1;P1;durP2;ratioP2;P2;SDS_P1;SDS_P2;PMS_P1;PMS_P2;Temp;Humidity;BMP_temperature;BMP_pressure;BME280_temperature;BME280_humidity;BME280_pressure;Samples;Min_cycle;Max_cycle;Signal;HPM_P1;HPM_P2
2022/01/09 00:01:09;;;;;;;71.78;29.75;;;;;;;-2.09;70.31;97527.16;5100444;28;20954;-67
2022/01/09 00:03:35;;;;;;;71.50;29.17;;;;;;;-1.96;70.49;97523.38;5108767;28;20736;-68
2022/01/09 00:06:00;;;;;;;68.70;27.17;;;;;;;-1.85;70.42;97510.97;5121176;27;20031;-67
2022/01/09 00:08:26;;;;;;;70.95;27.20;;;;;;;-1.75;70.32;97511.16;5119677;28;20031;-70
2022/01/09 00:10:52;;;;;;;64.93;25.45;;;;;;;-1.66;69.95;97507.03;5119293;28;20556;-68
2022/01/09 00:13:17;;;;;;;65.38;25.95;;;;;;;-1.57;70.24;97507.47;5120646;28;20579;-66
2022/01/09 00:15:43;;;;;;;67.43;26.40;;;;;;;-1.54;69.39;97503.47;5118661;28;20475;-68
2022/01/09 00:18:08;;;;;;;61.88;25.25;;;;;;;-1.52;69.58;97495.97;5119910;28;20098;-68
2022/01/09 00:20:34;;;;;;;61.75;24.95;;;;;;;-1.48;69.68;97496.31;5120030;28;20040;-67
2022/01/09 00:23:00;;;;;;;65.20;25.88;;;;;;;-1.45;69.45;97502.03;5121278;28;20036;-67
2022/01/09 00:25:27;;;;;;;63.20;26.65;;;;;;;-1.41;69.09;97499.66;5119745;28;20102;-67
2022/01/09 00:27:53;;;;;;;65.47;25.52;;;;;;;-1.36;69.73;97510.50;5119900;28;20034;-67
2022/01/09 00:30:22;;;;;;;65.63;25.17;;;;;;;-1.37;69.27;97495.41;5120477;28;20031;-69
2022/01/09 00:32:48;;;;;;;68.18;25.40;;;;;;;-1.33;69.08;97493.06;5101353;28;20027;-68
2022/01/09 00:35:15;;;;;;;62.35;24.77;;;;;;;-1.27;69.11;97484.84;5119369;28;20061;-67
2022/01/09 00:37:41;;;;;;;61.17;24.25;;;;;;;-1.21;69.11;97483.88;5119304;28;20050;-66
2022/01/09 00:40:09;;;;;;;61.72;23.55;;;;;;;-1.17;69.09;97488.78;5100847;28;20058;-67
2022/01/09 00:42:34;;;;;;;59.22;24.20;;;;;;;-1.13;68.86;97484.53;5120720;28;20136;-74
2022/01/09 00:45:00;;;;;;;58.13;25.45;;;;;;;-1.07;68.86;97484.38;5119838;28;20710;-68
2022/01/09 00:47:25;;;;;;;66.55;24.65;;;;;;;-0.99;69.18;97485.81;5099004;28;20027;-68
2022/01/09 00:49:51;;;;;;;59.67;22.27;;;;;;;-1.00;68.63;97488.78;5118533;28;20042;-67
2022/01/09 00:52:16;;;;;;;63.03;26.45;;;;;;;-1.01;68.19;97479.88;5111711;28;20380;-73
2022/01/09 00:54:42;;;;;;;63.42;26.65;;;;;;;-0.99;68.49;97477.75;5106096;28;20115;-67
2022/01/09 00:57:07;;;;;;;56.30;22.13;;;;;;;-0.96;68.62;97473.75;5105447;28;20039;-68
2022/01/09 00:59:32;;;;;;;59.80;24.85;;;;;;;-0.98;68.48;97468.59;5106781;28;20115;-67
2022/01/09 01:01:58;;;;;;;53.40;22.15;;;;;;;-0.96;68.40;97466.50;5106419;28;20023;-67
2022/01/09 01:04:23;;;;;;;67.40;25.98;;;;;;;-0.92;68.55;97458.75;5106345;28;20040;-67
2022/01/09 01:06:49;;;;;;;60.03;25.70;;;;;;;-0.90;68.60;97449.34;5105804;27;20039;-66
2022/01/09 01:09:16;;;;;;;59.55;25.10;;;;;;;-0.90;68.00;97449.34;5085901;28;20038;-68
2022/01/09 01:11:41;;;;;;;75.78;33.83;;;;;;;-0.87;68.08;97449.94;5107461;28;20032;-68
2022/01/09 01:14:07;;;;;;;63.03;24.35;;;;;;;-0.83;68.60;97434.91;5104659;28;20036;-66
2022/01/09 01:16:32;;;;;;;51.53;21.98;;;;;;;-0.91;67.67;97430.78;5104919;28;20081;-69
2022/01/09 01:18:59;;;;;;;55.22;23.73;;;;;;;-1.03;67.76;97428.19;5104459;28;20493;-67
2022/01/09 01:21:24;;;;;;;47.33;21.08;;;;;;;-1.08;67.81;97426.22;5104894;28;20050;-72
2022/01/09 01:23:51;;;;;;;42.05;18.70;;;;;;;-1.20;67.73;97415.56;5105328;28;20036;-68
2022/01/09 01:26:17;;;;;;;47.75;21.17;;;;;;;-1.27;67.81;97416.78;5106053;28;20031;-67
2022/01/09 01:28:42;;;;;;;50.17;21.33;;;;;;;-1.39;67.82;97422.22;5106206;28;20054;-69
2022/01/09 01:31:08;;;;;;;52.42;20.90;;;;;;;-1.47;68.22;97412.69;5105562;27;20043;-68
2022/01/09 01:33:33;;;;;;;48.20;21.55;;;;;;;-1.58;67.99;97405.50;5104504;28;20112;-68
2022/01/09 01:35:58;;;;;;;48.50;21.52;;;;;;;-1.65;68.24;97403.00;5104938;28;20119;-69
2022/01/09 01:38:24;;;;;;;54.10;20.52;;;;;;;-1.70;68.35;97398.34;5103755;28;20540;-71
2022/01/09 01:40:49;;;;;;;55.53;20.52;;;;;;;-1.77;67.87;97397.69;5104149;28;20410;-69
2022/01/09 01:43:15;;;;;;;45.40;20.60;;;;;;;-1.82;68.27;97392.22;5103156;28;20036;-71
2022/01/09 01:45:40;;;;;;;47.88;20.65;;;;;;;-1.84;68.46;97387.09;5082297;28;20092;-67
2022/01/09 01:48:06;;;;;;;39.33;18.40;;;;;;;-1.82;68.38;97384.16;5103776;28;20031;-70
2022/01/09 01:50:38;;;;;;;47.28;20.42;;;;;;;-1.81;68.27;97391.97;5104377;28;20474;-67
2022/01/09 01:53:11;;;;;;;49.40;21.27;;;;;;;-1.77;68.29;97388.78;5103859;28;20915;-68
2022/01/09 01:55:39;;;;;;;48.97;19.73;;;;;;;-1.74;68.46;97382.94;5103638;28;20035;-68
2022/01/09 01:58:06;;;;;;;51.25;21.88;;;;;;;-1.77;68.65;97378.03;5102858;28;20470;-69
2022/01/09 02:00:32;;;;;;;49.70;22.95;;;;;;;-1.75;68.71;97374.06;5085391;28;20147;-71
2022/01/09 02:02:58;;;;;;;45.63;19.00;;;;;;;-1.69;68.45;97378.47;5104734;28;20104;-71
2022/01/09 02:05:24;;;;;;;45.60;21.73;;;;;;;-1.56;68.95;97376.50;5104963;28;20081;-70
2022/01/09 02:07:50;;;;;;;41.35;18.77;;;;;;;-1.44;68.91;97379.13;5103844;28;20023;-69
2022/01/09 02:10:17;;;;;;;37.35;17.05;;;;;;;-1.38;68.83;97383.50;5105238;28;20034;-67
2022/01/09 02:12:42;;;;;;;41.80;18.20;;;;;;;-1.30;68.87;97375.03;5086847;28;20092;-69
2022/01/09 02:15:45;;;;;;;43.63;19.42;;;;;;;-1.21;68.87;97370.88;5104136;28;20040;-70
2022/01/09 02:18:14;;;;;;;52.78;21.23;;;;;;;-1.12;68.78;97362.38;5041475;28;20424;-67
2022/01/09 02:20:40;;;;;;;40.45;18.35;;;;;;;-1.07;69.04;97365.94;5105308;28;20038;-68
2022/01/09 02:23:08;;;;;;;40.83;17.50;;;;;;;-1.03;68.51;97368.97;5105298;28;20435;-68
2022/01/09 02:25:35;;;;;;;39.00;17.17;;;;;;;-1.02;68.53;97372.47;5103638;28;20036;-67
2022/01/09 02:28:01;;;;;;;37.28;17.88;;;;;;;-0.99;68.50;97356.63;5104875;28;20023;-68
2022/01/09 02:30:27;;;;;;;36.70;16.58;;;;;;;-0.95;68.66;97355.06;5105214;28;20052;-67
2022/01/09 02:32:52;;;;;;;39.88;17.00;;;;;;;-0.96;68.11;97355.34;5104320;27;20111;-66
2022/01/09 02:35:21;;;;;;;39.30;17.90;;;;;;;-0.91;68.37;97344.63;5101812;28;20038;-67
2022/01/09 02:37:47;;;;;;;43.78;19.38;;;;;;;-0.83;68.14;97343.38;5084945;28;20036;-67
2022/01/09 02:40:12;;;;;;;43.28;19.33;;;;;;;-0.80;68.22;97335.59;5103661;28;20418;-68
2022/01/09 02:42:38;;;;;;;43.75;19.95;;;;;;;-0.79;68.26;97331.06;5103644;28;20788;-65
2022/01/09 02:45:04;;;;;;;47.63;20.48;;;;;;;-0.72;68.48;97318.22;5101826;28;20064;-65
2022/01/09 02:47:32;;;;;;;43.40;19.65;;;;;;;-0.72;68.18;97328.16;5104050;27;20601;-65
2022/01/09 02:50:06;;;;;;;40.35;18.05;;;;;;;-0.75;68.47;97316.03;5103463;28;20023;-65
2022/01/09 02:52:47;;;;;;;43.45;19.10;;;;;;;-0.68;68.21;97313.13;5103575;28;20028;-65
2022/01/09 02:55:14;;;;;;;39.63;18.23;;;;;;;-0.66;68.21;97316.38;5102081;28;20035;-65
2022/01/09 02:58:01;;;;;;;47.55;19.05;;;;;;;-0.65;67.86;97308.06;5103630;28;20115;-65
2022/01/09 03:00:33;;;;;;;44.42;20.23;;;;;;;-0.58;68.03;97291.72;5103854;28;20031;-64
2022/01/09 03:02:59;;;;;;;36.80;15.07;;;;;;;-0.52;67.93;97292.56;5104617;28;20051;-65
2022/01/09 03:05:26;;;;;;;39.35;17.48;;;;;;;-0.61;67.69;97289.53;5102521;28;20375;-64
2022/01/09 03:07:51;;;;;;;36.92;16.52;;;;;;;-0.60;67.64;97283.88;5100728;27;20028;-64
2022/01/09 03:10:19;;;;;;;38.08;17.15;;;;;;;-0.57;67.57;97279.03;5105606;27;20081;-64
2022/01/09 03:12:46;;;;;;;33.72;15.30;;;;;;;-0.55;67.82;97279.59;5105357;27;20038;-64
2022/01/09 03:15:12;;;;;;;37.72;18.10;;;;;;;-0.51;67.76;97280.72;5103757;28;20510;-63
2022/01/09 03:17:38;;;;;;;39.28;17.42;;;;;;;-0.46;67.69;97284.31;5103882;27;20028;-64
2022/01/09 03:20:06;;;;;;;40.03;16.05;;;;;;;-0.47;67.47;97280.00;5102222;28;20056;-64
2022/01/09 03:22:32;;;;;;;36.55;15.85;;;;;;;-0.49;67.74;97276.75;5084830;28;20031;-64
2022/01/09 03:24:57;;;;;;;34.50;15.80;;;;;;;-0.48;67.40;97285.63;5082652;28;20035;-64
2022/01/09 03:27:22;;;;;;;35.08;16.02;;;;;;;-0.44;67.72;97270.56;5102346;28;20059;-64
2022/01/09 03:29:48;;;;;;;29.52;14.18;;;;;;;-0.39;67.50;97277.88;5103832;28;20413;-64
2022/01/09 03:32:14;;;;;;;31.83;14.32;;;;;;;-0.39;67.31;97275.19;5103629;28;20068;-65
2022/01/09 03:34:39;;;;;;;30.77;14.85;;;;;;;-0.42;67.26;97273.03;5102488;28;20034;-64
2022/01/09 03:37:05;;;;;;;28.48;14.30;;;;;;;-0.41;66.90;97272.75;5101899;28;20031;-65
2022/01/09 03:39:31;;;;;;;31.13;14.68;;;;;;;-0.42;67.33;97273.84;5083409;28;20024;-63
2022/01/09 03:41:58;;;;;;;33.67;15.27;;;;;;;-0.46;67.01;97264.63;5103372;28;20085;-63
2022/01/09 03:44:27;;;;;;;38.42;18.25;;;;;;;-0.41;67.50;97261.19;5084377;28;20036;-66
2022/01/09 03:46:54;;;;;;;30.93;14.90;;;;;;;-0.39;67.25;97259.03;5100768;28;20027;-63
2022/01/09 03:49:20;;;;;;;30.33;13.98;;;;;;;-0.42;67.20;97259.56;5084421;28;20030;-63
2022/01/09 03:51:50;;;;;;;31.70;15.07;;;;;;;-0.42;67.22;97259.56;5103358;28;20816;-64
2022/01/09 03:54:16;;;;;;;34.33;15.75;;;;;;;-0.40;67.41;97255.53;5102813;28;20027;-64
2022/01/09 03:56:41;;;;;;;31.98;14.68;;;;;;;-0.36;67.33;97256.66;5102497;28;20043;-64
2022/01/09 03:59:07;;;;;;;35.50;15.93;;;;;;;-0.33;67.62;97250.75;5103328;28;20028;-64
2022/01/09 04:01:32;;;;;;;34.40;16.38;;;;;;;-0.28;67.25;97255.38;5102220;28;20525;-63
2022/01/09 04:03:57;;;;;;;39.53;17.85;;;;;;;-0.24;67.49;97255.69;5083221;28;20023;-63
2022/01/09 04:06:24;;;;;;;37.70;16.92;;;;;;;-0.20;67.34;97243.31;5100632;28;20036;-63
2022/01/09 04:08:51;;;;;;;36.92;16.35;;;;;;;-0.22;67.04;97248.16;5101267;28;20538;-64
2022/01/09 04:11:23;;;;;;;37.10;16.42;;;;;;;-0.23;67.05;97250.03;5083631;28;20372;-63
2022/01/09 04:13:49;;;;;;;35.45;15.95;;;;;;;-0.23;66.86;97252.72;5103077;28;20592;-63
2022/01/09 04:16:15;;;;;;;37.65;17.52;;;;;;;-0.27;66.81;97248.13;5101192;28;20073;-64
2022/01/09 04:18:41;;;;;;;37.80;18.30;;;;;;;-0.30;67.12;97244.03;5101161;28;20035;-64
2022/01/09 04:21:06;;;;;;;38.45;17.85;;;;;;;-0.32;67.01;97244.31;5102059;28;20028;-63
2022/01/09 04:23:31;;;;;;;38.78;18.40;;;;;;;-0.32;66.76;97244.31;5101096;28;20788;-63
2022/01/09 04:25:57;;;;;;;37.25;18.17;;;;;;;-0.39;66.98;97243.69;5101786;28;20080;-64
2022/01/09 04:28:22;;;;;;;35.65;17.55;;;;;;;-0.36;66.89;97239.66;5105428;28;20055;-64
2022/01/09 04:30:48;;;;;;;36.65;17.50;;;;;;;-0.36;66.97;97237.78;5106895;27;20031;-64
2022/01/09 04:33:14;;;;;;;34.63;16.30;;;;;;;-0.34;66.72;97240.22;5088904;28;20440;-63
2022/01/09 04:35:41;;;;;;;32.80;16.63;;;;;;;-0.36;67.07;97240.50;5106102;28;20039;-64
2022/01/09 04:38:06;;;;;;;29.13;14.63;;;;;;;-0.38;67.40;97231.84;5105820;28;20036;-63
2022/01/09 04:40:32;;;;;;;30.95;14.40;;;;;;;-0.38;67.21;97239.94;5106160;28;20143;-63
2022/01/09 04:43:00;;;;;;;31.10;14.60;;;;;;;-0.37;67.09;97238.03;5087535;28;20023;-63
2022/01/09 04:45:28;;;;;;;24.23;13.32;;;;;;;-0.42;66.80;97235.31;5104772;28;20028;-64
2022/01/09 04:47:56;;;;;;;22.27;12.52;;;;;;;-0.53;67.08;97247.84;5106724;28;20059;-64
2022/01/09 04:50:27;;;;;;;33.42;14.13;;;;;;;-0.74;66.46;97247.66;5081998;28;20028;-63
2022/01/09 04:52:59;;;;;;;33.83;16.02;;;;;;;-0.96;66.18;97253.84;5086714;28;20155;-64
2022/01/09 04:55:29;;;;;;;50.15;20.50;;;;;;;-1.07;66.47;97246.75;5103271;28;20028;-63
2022/01/09 04:57:55;;;;;;;54.20;21.87;;;;;;;-1.15;66.64;97244.50;5104438;28;20070;-64
2022/01/09 05:00:20;;;;;;;41.80;17.45;;;;;;;-1.18;66.67;97242.28;5106742;28;20348;-63
2022/01/09 05:02:46;;;;;;;44.47;17.48;;;;;;;-1.23;66.52;97248.44;5106534;28;20438;-64
2022/01/09 05:05:12;;;;;;;44.03;18.20;;;;;;;-1.33;66.70;97246.41;5105553;28;20378;-64
2022/01/09 05:07:38;;;;;;;35.80;15.50;;;;;;;-1.36;67.02;97245.03;5105739;27;20030;-63
2022/01/09 05:10:05;;;;;;;32.97;16.55;;;;;;;-1.37;66.81;97248.78;5105799;28;21117;-63
2022/01/09 05:12:30;;;;;;;34.83;18.17;;;;;;;-1.38;66.69;97257.09;5106593;28;20031;-63
2022/01/09 05:14:55;;;;;;;24.92;13.73;;;;;;;-1.39;66.86;97244.72;5105511;28;20023;-63
2022/01/09 05:17:21;;;;;;;22.67;12.43;;;;;;;-1.41;66.87;97246.81;5104669;28;20012;-63
2022/01/09 05:19:47;;;;;;;24.80;12.65;;;;;;;-1.42;66.88;97243.34;5106738;28;20089;-63
2022/01/09 05:22:13;;;;;;;22.63;11.38;;;;;;;-1.42;66.97;97253.28;5087867;28;20051;-63
2022/01/09 05:24:38;;;;;;;26.95;13.30;;;;;;;-1.41;66.99;97258.41;5104687;28;20034;-63
2022/01/09 05:27:04;;;;;;;26.67;12.57;;;;;;;-1.42;67.15;97259.47;5104994;28;20032;-63
2022/01/09 05:29:29;;;;;;;32.85;15.38;;;;;;;-1.43;67.24;97254.34;5104599;28;20398;-64
2022/01/09 05:31:55;;;;;;;32.17;14.15;;;;;;;-1.45;66.96;97259.16;5105813;28;20050;-64
2022/01/09 05:34:20;;;;;;;29.58;13.82;;;;;;;-1.49;67.01;97256.16;5105029;28;20348;-63
2022/01/09 05:36:46;;;;;;;25.85;12.30;;;;;;;-1.54;66.96;97267.66;5104181;28;20374;-63
2022/01/09 05:39:11;;;;;;;33.70;15.50;;;;;;;-1.63;66.92;97266.44;5105231;28;20032;-63
2022/01/09 05:41:39;;;;;;;33.47;15.05;;;;;;;-1.65;66.89;97263.19;5105683;28;20086;-64
2022/01/09 05:44:05;;;;;;;29.95;14.75;;;;;;;-1.69;67.21;97262.88;5104083;28;20023;-64
2022/01/09 05:46:30;;;;;;;32.75;16.10;;;;;;;-1.72;66.98;97262.53;5104306;28;20360;-64
2022/01/09 05:48:56;;;;;;;27.85;12.60;;;;;;;-1.80;66.70;97259.19;5105319;28;20024;-64
2022/01/09 05:51:21;;;;;;;24.48;12.93;;;;;;;-1.82;66.84;97263.19;5105432;28;20027;-64
2022/01/09 05:53:46;;;;;;;22.80;11.23;;;;;;;-1.85;66.99;97267.22;5104371;28;20028;-65
2022/01/09 05:56:12;;;;;;;22.50;12.15;;;;;;;-1.83;66.62;97265.06;5105305;28;20642;-64
2022/01/09 05:58:39;;;;;;;23.15;11.75;;;;;;;-1.77;67.10;97263.28;5105198;28;20042;-65
2022/01/09 06:01:06;;;;;;;26.83;13.80;;;;;;;-1.72;67.48;97276.81;5104686;28;20037;-65
2022/01/09 06:03:31;;;;;;;28.80;13.43;;;;;;;-1.68;67.32;97269.88;5104224;28;20106;-65
2022/01/09 06:05:57;;;;;;;26.73;13.02;;;;;;;-1.63;67.21;97263.75;5104752;28;20103;-65
2022/01/09 06:08:22;;;;;;;26.23;13.75;;;;;;;-1.61;67.05;97271.56;5104349;28;20367;-65
2022/01/09 06:10:48;;;;;;;29.58;13.30;;;;;;;-1.67;67.23;97276.06;5086784;28;20028;-65
2022/01/09 06:13:13;;;;;;;32.95;14.82;;;;;;;-1.69;67.24;97270.09;5105281;28;20134;-65
2022/01/09 06:15:38;;;;;;;32.85;15.15;;;;;;;-1.73;67.21;97269.78;5103588;28;20376;-65
2022/01/09 06:18:05;;;;;;;34.22;14.90;;;;;;;-1.80;67.09;97264.56;5104711;28;20107;-63
2022/01/09 06:20:30;;;;;;;37.45;16.67;;;;;;;-1.86;67.26;97270.13;5104173;28;20016;-64
2022/01/09 06:22:55;;;;;;;36.70;15.60;;;;;;;-1.91;67.00;97265.50;5104899;28;20098;-64
2022/01/09 06:25:21;;;;;;;31.27;15.18;;;;;;;-1.97;67.05;97258.41;5103406;28;20027;-64
2022/01/09 06:27:47;;;;;;;33.13;14.80;;;;;;;-2.01;67.19;97257.25;5104771;28;20031;-64
2022/01/09 06:30:13;;;;;;;29.73;15.05;;;;;;;-2.07;66.97;97259.06;5106489;28;20070;-64
2022/01/09 06:32:38;;;;;;;38.63;16.00;;;;;;;-2.16;66.89;97250.56;5104856;28;20031;-64
2022/01/09 06:35:05;;;;;;;41.80;18.27;;;;;;;-2.25;66.95;97255.53;5103927;28;20044;-64
2022/01/09 06:37:30;;;;;;;41.42;17.50;;;;;;;-2.32;67.31;97251.41;5105363;28;20585;-64
2022/01/09 06:39:56;;;;;;;39.45;17.05;;;;;;;-2.37;67.16;97244.03;5104834;28;20078;-64
2022/01/09 06:42:21;;;;;;;33.85;14.88;;;;;;;-2.46;66.97;97243.63;5105971;28;20051;-64
2022/01/09 06:44:47;;;;;;;29.30;14.50;;;;;;;-2.54;67.15;97244.03;5103678;28;20024;-64
2022/01/09 06:47:12;;;;;;;28.60;14.07;;;;;;;-2.56;67.24;97243.44;5083976;28;20490;-64
2022/01/09 06:49:38;;;;;;;27.63;13.32;;;;;;;-2.62;67.21;97233.66;5086029;28;20043;-63
2022/01/09 06:52:04;;;;;;;29.77;14.27;;;;;;;-2.67;67.29;97239.78;5085605;28;20110;-64
2022/01/09 06:54:30;;;;;;;33.08;15.30;;;;;;;-2.69;67.50;97231.16;5080608;28;20028;-64
2022/01/09 06:56:56;;;;;;;43.90;20.90;;;;;;;-2.70;67.66;97233.03;5103263;28;20070;-63
2022/01/09 06:59:21;;;;;;;51.13;26.40;;;;;;;-2.71;67.39;97234.09;5105330;28;20514;-63
2022/01/09 07:01:47;;;;;;;65.50;32.30;;;;;;;-2.72;67.31;97237.81;5105257;28;20035;-64
2022/01/09 07:04:12;;;;;;;55.85;26.17;;;;;;;-2.73;67.34;97232.69;5104171;28;20039;-64
2022/01/09 07:06:37;;;;;;;57.58;25.02;;;;;;;-2.71;67.57;97238.63;5103349;28;20570;-64
2022/01/09 07:09:04;;;;;;;44.38;20.35;;;;;;;-2.72;67.40;97237.00;5104743;28;20070;-64
2022/01/09 07:11:29;;;;;;;45.13;20.02;;;;;;;-2.76;67.60;97230.47;5104549;28;20051;-63
2022/01/09 07:13:55;;;;;;;43.63;19.90;;;;;;;-2.75;67.76;97229.41;5085415;28;20167;-63
2022/01/09 07:16:21;;;;;;;40.38;19.30;;;;;;;-2.77;67.63;97236.91;5103469;28;20035;-63
2022/01/09 07:18:46;;;;;;;37.15;18.38;;;;;;;-2.77;67.85;97235.03;5103821;28;20035;-63
2022/01/09 07:21:11;;;;;;;40.35;19.38;;;;;;;-2.79;67.65;97231.78;5086299;28;20036;-64
2022/01/09 07:23:37;;;;;;;34.67;17.95;;;;;;;-2.79;67.87;97237.16;5103820;28;20034;-64
2022/01/09 07:26:02;;;;;;;34.13;18.20;;;;;;;-2.80;67.97;97232.84;5103598;28;20027;-63
2022/01/09 07:28:28;;;;;;;38.95;19.67;;;;;;;-2.80;67.67;97232.00;5103629;28;20660;-63
2022/01/09 07:30:53;;;;;;;37.75;19.40;;;;;;;-2.79;68.01;97231.78;5086491;28;20024;-63
2022/01/09 07:33:19;;;;;;;37.03;19.65;;;;;;;-2.77;68.02;97229.69;5104957;28;20028;-63
2022/01/09 07:35:44;;;;;;;43.15;20.38;;;;;;;-2.73;67.99;97230.00;5103422;28;20897;-64
2022/01/09 07:38:09;;;;;;;41.10;20.75;;;;;;;-2.72;68.08;97232.44;5103715;28;20107;-64
2022/01/09 07:40:35;;;;;;;49.22;22.70;;;;;;;-2.67;68.25;97228.22;5103766;28;20052;-64
2022/01/09 07:43:00;;;;;;;53.92;24.10;;;;;;;-2.62;68.00;97223.75;5103740;28;20049;-63
2022/01/09 07:45:27;;;;;;;57.25;29.08;;;;;;;-2.58;68.33;97221.41;5083642;28;20080;-63
2022/01/09 07:47:55;;;;;;;75.45;35.22;;;;;;;-2.55;68.23;97221.75;5103744;28;20040;-63
2022/01/09 07:50:22;;;;;;;67.25;34.92;;;;;;;-2.50;68.35;97220.22;5103045;28;20076;-64
2022/01/09 07:52:48;;;;;;;58.95;35.67;;;;;;;-2.47;68.36;97223.22;5104207;28;20020;-63
2022/01/09 07:55:14;;;;;;;60.22;34.03;;;;;;;-2.41;68.74;97224.09;5102457;28;20031;-64
2022/01/09 07:57:40;;;;;;;47.30;29.45;;;;;;;-2.37;68.58;97219.09;5103245;28;20714;-64
2022/01/09 08:00:10;;;;;;;43.47;25.65;;;;;;;-2.34;68.46;97218.59;5104333;28;20118;-64
2022/01/09 08:02:35;;;;;;;39.22;24.25;;;;;;;-2.34;68.30;97227.44;5106280;28;20050;-64
2022/01/09 08:05:01;;;;;;;41.20;23.92;;;;;;;-2.30;68.40;97217.84;5107234;28;20035;-64
2022/01/09 08:07:26;;;;;;;46.40;27.20;;;;;;;-2.25;68.43;97217.94;5107213;28;20032;-64
2022/01/09 08:09:52;;;;;;;43.97;23.40;;;;;;;-2.19;68.40;97213.44;5108135;28;20510;-64
2022/01/09 08:12:17;;;;;;;46.40;22.98;;;;;;;-2.15;68.40;97205.75;5108317;28;20065;-64
2022/01/09 08:14:43;;;;;;;61.08;31.73;;;;;;;-2.11;68.17;97199.63;5104605;28;20081;-64
2022/01/09 08:17:09;;;;;;;53.47;25.73;;;;;;;-2.04;68.01;97204.00;5106521;28;20043;-64
2022/01/09 08:19:35;;;;;;;58.25;29.65;;;;;;;-2.02;68.15;97209.97;5108503;28;20066;-64
2022/01/09 08:22:02;;;;;;;57.28;31.42;;;;;;;-1.98;68.34;97200.34;5108470;28;20516;-64
2022/01/09 08:24:27;;;;;;;56.63;25.98;;;;;;;-1.93;68.60;97192.38;5107159;28;20090;-64
2022/01/09 08:26:53;;;;;;;46.88;24.52;;;;;;;-1.86;68.53;97197.56;5106734;28;20474;-64
2022/01/09 08:29:18;;;;;;;51.45;29.10;;;;;;;-1.81;68.57;97195.75;5109432;28;20102;-64
2022/01/09 08:31:44;;;;;;;40.15;21.05;;;;;;;-1.74;68.29;97186.69;5110115;27;20642;-64
2022/01/09 08:34:09;;;;;;;34.42;19.42;;;;;;;-1.68;68.69;97185.72;5088985;28;20445;-65
2022/01/09 08:36:35;;;;;;;33.05;17.90;;;;;;;-1.60;68.45;97197.91;5107133;28;20084;-64
2022/01/09 08:39:03;;;;;;;39.05;20.30;;;;;;;-1.54;68.28;97186.97;5108672;28;20037;-64
2022/01/09 08:41:28;;;;;;;36.13;19.63;;;;;;;-1.51;68.00;97172.22;5108301;28;20424;-64
2022/01/09 08:43:53;;;;;;;33.75;17.23;;;;;;;-1.45;68.23;97175.81;5107552;28;20061;-63
2022/01/09 08:46:19;;;;;;;32.28;15.57;;;;;;;-1.38;68.32;97181.78;5107413;28;20103;-64
2022/01/09 08:48:44;;;;;;;32.72;14.05;;;;;;;-1.35;67.98;97178.59;5107913;28;20064;-63
2022/01/09 08:51:10;;;;;;;29.50;12.63;;;;;;;-1.28;67.95;97181.91;5108607;28;20032;-63
2022/01/09 08:53:39;;;;;;;31.85;14.00;;;;;;;-1.23;68.05;97173.09;5107246;28;20027;-64
2022/01/09 08:56:05;;;;;;;30.73;14.03;;;;;;;-1.15;68.04;97169.16;5106723;28;20031;-64
2022/01/09 08:58:32;;;;;;;32.80;16.20;;;;;;;-1.10;67.97;97166.53;5105221;28;20311;-64
2022/01/09 09:00:58;;;;;;;32.55;14.98;;;;;;;-1.02;67.85;97173.31;5108280;28;20032;-64
2022/01/09 09:03:24;;;;;;;32.80;14.23;;;;;;;-0.95;67.73;97172.03;5108183;28;20031;-64
2022/01/09 09:05:49;;;;;;;27.50;12.48;;;;;;;-0.92;67.28;97170.75;5107047;28;20020;-65
2022/01/09 09:08:15;;;;;;;28.02;12.40;;;;;;;-0.86;67.67;97161.66;5107129;28;20031;-64
2022/01/09 09:10:40;;;;;;;36.95;17.15;;;;;;;-0.78;67.33;97165.75;5108213;28;20104;-65
2022/01/09 09:13:06;;;;;;;39.47;15.93;;;;;;;-0.72;67.32;97162.06;5107222;28;20372;-64
2022/01/09 09:15:32;;;;;;;29.42;12.73;;;;;;;-0.65;67.60;97164.53;5106605;28;20463;-64
2022/01/09 09:17:57;;;;;;;36.30;17.02;;;;;;;-0.60;67.51;97157.31;5106907;28;20098;-64
2022/01/09 09:20:23;;;;;;;37.60;17.17;;;;;;;-0.54;67.44;97165.44;5087482;28;20028;-64
2022/01/09 09:22:49;;;;;;;30.65;12.27;;;;;;;-0.45;67.22;97166.59;5108534;28;20034;-64
2022/01/09 09:25:15;;;;;;;25.23;11.32;;;;;;;-0.40;66.96;97166.63;5106464;28;20062;-64
2022/01/09 09:27:41;;;;;;;25.35;11.25;;;;;;;-0.35;66.90;97163.16;5106643;28;20510;-65
2022/01/09 09:30:07;;;;;;;30.27;12.55;;;;;;;-0.29;66.78;97161.34;5107544;28;20036;-65
2022/01/09 09:32:33;;;;;;;28.02;12.00;;;;;;;-0.21;66.89;97158.16;5088714;28;20038;-64
2022/01/09 09:34:59;;;;;;;22.77;10.38;;;;;;;-0.12;66.68;97161.19;5105648;28;20036;-64
2022/01/09 09:37:28;;;;;;;27.48;11.50;;;;;;;-0.06;66.67;97158.25;5105739;28;20039;-64
2022/01/09 09:39:54;;;;;;;23.17;11.55;;;;;;;0.01;66.27;97149.13;5106765;28;20049;-65
2022/01/09 09:42:20;;;;;;;28.58;12.80;;;;;;;0.06;66.93;97152.66;5105360;28;20103;-64
2022/01/09 09:44:46;;;;;;;23.40;11.43;;;;;;;0.13;66.15;97155.16;5088024;28;20031;-64
2022/01/09 09:47:11;;;;;;;25.58;11.48;;;;;;;0.18;66.12;97146.28;5105948;28;20076;-64
2022/01/09 09:49:37;;;;;;;23.30;10.98;;;;;;;0.24;66.29;97147.94;5107047;28;20085;-65
2022/01/09 09:52:06;;;;;;;28.02;12.18;;;;;;;0.30;65.67;97152.28;5107270;28;20111;-63
2022/01/09 09:54:31;;;;;;;19.92;9.07;;;;;;;0.35;65.30;97156.88;5105674;28;20838;-65
2022/01/09 09:56:57;;;;;;;15.23;8.13;;;;;;;0.41;64.85;97153.94;5105939;28;20019;-65
2022/01/09 09:59:28;;;;;;;23.40;10.18;;;;;;;0.46;65.40;97149.66;5106814;28;20027;-65
2022/01/09 10:01:54;;;;;;;20.10;9.23;;;;;;;0.52;64.81;97145.91;5105561;28;20023;-64
2022/01/09 10:04:19;;;;;;;23.13;11.05;;;;;;;0.56;64.46;97155.91;5087058;28;20028;-65
2022/01/09 10:06:48;;;;;;;26.90;12.15;;;;;;;0.62;64.26;97151.34;5105361;28;20028;-65
2022/01/09 10:09:19;;;;;;;28.40;11.73;;;;;;;0.70;64.84;97141.91;5106085;28;20049;-66
2022/01/09 10:11:51;;;;;;;21.73;10.38;;;;;;;0.78;64.81;97146.00;5088137;28;20035;-65
2022/01/09 10:14:21;;;;;;;22.13;11.10;;;;;;;0.84;65.16;97148.44;5105704;28;20080;-65
2022/01/09 10:17:06;;;;;;;20.55;9.68;;;;;;;0.93;63.93;97154.13;5105492;28;20086;-64
2022/01/09 10:19:54;;;;;;;23.05;11.05;;;;;;;1.00;63.73;97145.81;5106467;28;20016;-65
2022/01/09 10:22:33;;;;;;;20.80;9.73;;;;;;;1.07;64.21;97140.94;5105647;28;20024;-64
2022/01/09 10:25:15;;;;;;;16.25;8.38;;;;;;;1.14;64.15;97138.78;5103224;28;20554;-64
2022/01/09 10:27:40;;;;;;;18.25;8.48;;;;;;;1.17;63.60;97138.25;5105071;28;20469;-64
2022/01/09 10:30:06;;;;;;;18.65;8.38;;;;;;;1.19;63.12;97136.09;5106951;28;20103;-64
2022/01/09 10:32:33;;;;;;;16.17;7.53;;;;;;;1.23;63.08;97140.97;5106223;28;20028;-65
2022/01/09 10:35:12;;;;;;;19.40;8.82;;;;;;;1.29;62.67;97137.22;5105247;28;20053;-65
2022/01/09 10:37:40;;;;;;;18.98;8.32;;;;;;;1.29;62.53;97129.09;5105621;28;20128;-65
2022/01/09 10:40:08;;;;;;;16.20;7.65;;;;;;;1.29;61.80;97129.91;5087072;28;20052;-65
2022/01/09 10:42:35;;;;;;;19.42;9.05;;;;;;;1.32;61.83;97133.97;5105293;28;20114;-65
2022/01/09 10:45:23;;;;;;;25.05;15.40;;;;;;;1.38;62.26;97137.47;5104204;28;20027;-64
2022/01/09 10:47:51;;;;;;;16.90;8.13;;;;;;;1.42;61.10;97141.28;5105415;28;20098;-64
2022/01/09 10:50:29;;;;;;;15.75;7.28;;;;;;;1.45;61.35;97138.03;5087751;28;20495;-65
2022/01/09 10:53:12;;;;;;;15.32;8.02;;;;;;;1.53;61.59;97134.78;5105609;28;20032;-64
2022/01/09 10:55:38;;;;;;;22.25;10.55;;;;;;;1.58;61.59;97137.50;5104519;28;20038;-65
2022/01/09 10:58:22;;;;;;;16.30;8.50;;;;;;;1.66;61.89;97135.31;5105172;28;20045;-64
2022/01/09 11:01:05;;;;;;;14.10;6.47;;;;;;;1.67;60.68;97132.34;5106493;28;20028;-65
2022/01/09 11:03:30;;;;;;;17.73;8.10;;;;;;;1.69;60.35;97132.06;5104877;28;20553;-65
2022/01/09 11:05:56;;;;;;;17.98;8.63;;;;;;;1.75;60.23;97129.13;5105155;28;20027;-64
2022/01/09 11:08:22;;;;;;;12.98;7.22;;;;;;;1.84;60.12;97131.25;5104108;28;20048;-65
2022/01/09 11:10:47;;;;;;;19.25;9.43;;;;;;;1.91;60.30;97131.78;5106074;28;20474;-64
2022/01/09 11:13:16;;;;;;;17.02;7.47;;;;;;;1.99;60.18;97130.44;5105630;28;20039;-65
2022/01/09 11:16:32;;;;;;;17.15;8.25;;;;;;;2.06;58.81;97129.06;5104076;28;20032;-65
2022/01/09 11:18:27;;;;;;;14.70;7.32;;;;;;;2.09;56.49;97135.81;5104586;28;20114;-64